sensor_id;sensor_type;location;lat;lon;timestamp;P1;durP1;ratioP1;P2;durP2;ratioP2
69917;SDS011;57203;42.672;23.334;2023-04-09T00:00:25;16.0;;;11.7;;
69917;SDS011;57203;42.672;23.334;2023-04-09T00:01:25;16.3;;;12.4;;
69917;SDS011;57203;42.672;23.334;2023-04-09T00:02:26;16.3;;;11.5;;
69917;SDS011;57203;42.672;23.334;2023-04-09T00:03:26;14.7;;;12.4;;
69917;SDS011;57203;42.672;23.334;2023-04-09T00:04:26;16.9;;;12.2;;
69917;SDS011;57203;42.672;23.334;2023-04-09T00:05:26;16.9;;;12.0;;
69917;SDS011;57203;42.672;23.334;2023-04-09T00:06:26;15.1;;;11.5;;
69917;SDS011;57203;42.672;23.334;2023-04-09T00:07:26;15.1;;;11.4;;
69917;SDS011;57203;42.672;23.334;2023-04-09T00:08:27;14.2;;;12.5;;
69917;SDS011;57203;42.672;23.334;2023-04-09T00:09:27;18.3;;;11.8;;
69917;SDS011;57203;42.672;23.334;2023-04-09T00:10:27;16.3;;;12.0;;
69917;SDS011;57203;42.672;23.334;2023-04-09T00:11:27;16.0;;;11.9;;
69917;SDS011;57203;42.672;23.334;2023-04-09T00:12:27;15.6;;;11.8;;
69917;SDS011;57203;42.672;23.334;2023-04-09T00:13:27;14.4;;;11.7;;
69917;SDS011;57203;42.672;23.334;2023-04-09T00:14:28;16.3;;;11.8;;
69917;SDS011;57203;42.672;23.334;2023-04-09T00:15:28;15.8;;;12.0;;
69917;SDS011;57203;42.672;23.334;2023-04-09T00:17:28;16.0;;;11.4;;
69917;SDS011;57203;42.672;23.334;2023-04-09T00:18:28;14.2;;;11.2;;
69917;SDS011;57203;42.672;23.334;2023-04-09T00:19:29;13.9;;;11.7;;
69917;SDS011;57203;42.672;23.334;2023-04-09T00:20:29;14.6;;;11.2;;
69917;SDS011;57203;42.672;23.334;2023-04-09T00:21:29;14.9;;;11.9;;
69917;SDS011;57203;42.672;23.334;2023-04-09T00:22:29;15.1;;;11.8;;
69917;SDS011;57203;42.672;23.334;2023-04-09T00:24:29;15.7;;;11.3;;
69917;SDS011;57203;42.672;23.334;2023-04-09T00:25:30;15.7;;;11.7;;
69917;SDS011;57203;42.672;23.334;2023-04-09T00:26:30;16.0;;;12.0;;
69917;SDS011;57203;42.672;23.334;2023-04-09T00:28:30;15.4;;;11.7;;
69917;SDS011;57203;42.672;23.334;2023-04-09T00:29:30;15.4;;;11.5;;
69917;SDS011;57203;42.672;23.334;2023-04-09T00:30:30;15.0;;;11.3;;
69917;SDS011;57203;42.672;23.334;2023-04-09T00:31:31;14.3;;;12.2;;
69917;SDS011;57203;42.672;23.334;2023-04-09T00:32:31;16.6;;;12.4;;
69917;SDS011;57203;42.672;23.334;2023-04-09T00:34:31;15.9;;;11.7;;
69917;SDS011;57203;42.672;23.334;2023-04-09T00:35:31;15.9;;;12.5;;
69917;SDS011;57203;42.672;23.334;2023-04-09T00:36:31;17.0;;;12.1;;
69917;SDS011;57203;42.672;23.334;2023-04-09T00:37:32;17.0;;;12.2;;
69917;SDS011;57203;42.672;23.334;2023-04-09T00:38:32;15.6;;;12.1;;
69917;SDS011;57203;42.672;23.334;2023-04-09T00:40:32;16.3;;;11.0;;
69917;SDS011;57203;42.672;23.334;2023-04-09T00:41:32;14.7;;;10.9;;
69917;SDS011;57203;42.672;23.334;2023-04-09T00:42:33;15.9;;;12.2;;
69917;SDS011;57203;42.672;23.334;2023-04-09T00:43:33;15.9;;;11.2;;
69917;SDS011;57203;42.672;23.334;2023-04-09T00:44:33;15.1;;;11.8;;
69917;SDS011;57203;42.672;23.334;2023-04-09T00:45:33;15.1;;;11.0;;
69917;SDS011;57203;42.672;23.334;2023-04-09T00:46:33;14.6;;;11.2;;
69917;SDS011;57203;42.672;23.334;2023-04-09T00:47:34;14.3;;;11.0;;
69917;SDS011;57203;42.672;23.334;2023-04-09T00:48:33;16.6;;;12.0;;
69917;SDS011;57203;42.672;23.334;2023-04-09T00:49:34;16.6;;;11.9;;
69917;SDS011;57203;42.672;23.334;2023-04-09T00:50:34;15.0;;;11.1;;
69917;SDS011;57203;42.672;23.334;2023-04-09T00:51:34;15.0;;;11.2;;
69917;SDS011;57203;42.672;23.334;2023-04-09T00:52:34;15.7;;;11.5;;
69917;SDS011;57203;42.672;23.334;2023-04-09T00:53:34;15.7;;;10.7;;
69917;SDS011;57203;42.672;23.334;2023-04-09T00:54:34;14.1;;;11.7;;
69917;SDS011;57203;42.672;23.334;2023-04-09T00:56:35;14.3;;;11.9;;
69917;SDS011;57203;42.672;23.334;2023-04-09T00:57:35;15.6;;;10.9;;
69917;SDS011;57203;42.672;23.334;2023-04-09T00:58:35;15.8;;;11.0;;
69917;SDS011;57203;42.672;23.334;2023-04-09T00:59:35;14.1;;;11.1;;
69917;SDS011;57203;42.672;23.334;2023-04-09T01:00:35;17.7;;;11.0;;
69917;SDS011;57203;42.672;23.334;2023-04-09T01:01:36;15.3;;;11.2;;
69917;SDS011;57203;42.672;23.334;2023-04-09T01:02:36;15.3;;;11.6;;
69917;SDS011;57203;42.672;23.334;2023-04-09T01:03:36;14.9;;;11.1;;
69917;SDS011;57203;42.672;23.334;2023-04-09T01:05:38;14.8;;;10.9;;
69917;SDS011;57203;42.672;23.334;2023-04-09T01:06:38;14.1;;;11.1;;
69917;SDS011;57203;42.672;23.334;2023-04-09T01:07:39;13.9;;;11.2;;
69917;SDS011;57203;42.672;23.334;2023-04-09T01:08:40;15.4;;;11.3;;
69917;SDS011;57203;42.672;23.334;2023-04-09T01:09:38;15.4;;;10.9;;
69917;SDS011;57203;42.672;23.334;2023-04-09T01:10:38;13.9;;;10.8;;
69917;SDS011;57203;42.672;23.334;2023-04-09T01:11:37;13.5;;;10.5;;
69917;SDS011;57203;42.672;23.334;2023-04-09T01:13:38;14.1;;;10.2;;
69917;SDS011;57203;42.672;23.334;2023-04-09T01:14:39;14.4;;;10.7;;
69917;SDS011;57203;42.672;23.334;2023-04-09T01:15:38;14.4;;;10.8;;
69917;SDS011;57203;42.672;23.334;2023-04-09T01:16:39;14.3;;;10.6;;
69917;SDS011;57203;42.672;23.334;2023-04-09T01:17:40;13.1;;;10.7;;
69917;SDS011;57203;42.672;23.334;2023-04-09T01:18:39;13.6;;;11.2;;
69917;SDS011;57203;42.672;23.334;2023-04-09T01:19:41;14.3;;;10.7;;
69917;SDS011;57203;42.672;23.334;2023-04-09T01:20:39;14.3;;;10.6;;
69917;SDS011;57203;42.672;23.334;2023-04-09T01:21:39;14.8;;;10.0;;
69917;SDS011;57203;42.672;23.334;2023-04-09T01:22:41;14.2;;;10.8;;
69917;SDS011;57203;42.672;23.334;2023-04-09T01:23:43;14.2;;;11.2;;
69917;SDS011;57203;42.672;23.334;2023-04-09T01:24:41;14.6;;;11.1;;
69917;SDS011;57203;42.672;23.334;2023-04-09T01:25:43;15.0;;;10.6;;
69917;SDS011;57203;42.672;23.334;2023-04-09T01:26:44;13.5;;;10.7;;
69917;SDS011;57203;42.672;23.334;2023-04-09T01:27:43;14.6;;;10.4;;
69917;SDS011;57203;42.672;23.334;2023-04-09T01:28:41;13.5;;;10.9;;
69917;SDS011;57203;42.672;23.334;2023-04-09T01:29:47;14.6;;;10.6;;
69917;SDS011;57203;42.672;23.334;2023-04-09T01:31:41;13.4;;;10.8;;
69917;SDS011;57203;42.672;23.334;2023-04-09T01:32:41;14.3;;;10.7;;
69917;SDS011;57203;42.672;23.334;2023-04-09T01:33:41;13.1;;;10.6;;
69917;SDS011;57203;42.672;23.334;2023-04-09T01:34:41;14.4;;;11.1;;
69917;SDS011;57203;42.672;23.334;2023-04-09T01:35:41;13.4;;;11.3;;
69917;SDS011;57203;42.672;23.334;2023-04-09T01:36:41;13.4;;;11.6;;
69917;SDS011;57203;42.672;23.334;2023-04-09T01:37:42;14.5;;;11.0;;
69917;SDS011;57203;42.672;23.334;2023-04-09T01:38:42;13.9;;;10.7;;
69917;SDS011;57203;42.672;23.334;2023-04-09T01:39:42;13.9;;;11.3;;
69917;SDS011;57203;42.672;23.334;2023-04-09T01:40:42;14.2;;;10.1;;
69917;SDS011;57203;42.672;23.334;2023-04-09T01:41:42;13.6;;;10.3;;
69917;SDS011;57203;42.672;23.334;2023-04-09T01:42:42;14.0;;;10.6;;
69917;SDS011;57203;42.672;23.334;2023-04-09T01:43:43;14.6;;;10.5;;
69917;SDS011;57203;42.672;23.334;2023-04-09T01:44:43;14.8;;;11.2;;
69917;SDS011;57203;42.672;23.334;2023-04-09T01:45:43;15.8;;;10.9;;
69917;SDS011;57203;42.672;23.334;2023-04-09T01:46:44;14.2;;;11.1;;
69917;SDS011;57203;42.672;23.334;2023-04-09T01:48:44;14.6;;;11.0;;
69917;SDS011;57203;42.672;23.334;2023-04-09T01:49:44;13.6;;;10.7;;
69917;SDS011;57203;42.672;23.334;2023-04-09T01:50:44;14.3;;;11.0;;
69917;SDS011;57203;42.672;23.334;2023-04-09T01:51:44;14.3;;;11.3;;
69917;SDS011;57203;42.672;23.334;2023-04-09T01:52:44;14.9;;;11.7;;
69917;SDS011;57203;42.672;23.334;2023-04-09T01:53:44;14.1;;;11.3;;
69917;SDS011;57203;42.672;23.334;2023-04-09T01:54:44;14.1;;;10.9;;
69917;SDS011;57203;42.672;23.334;2023-04-09T01:55:45;14.9;;;11.3;;
69917;SDS011;57203;42.672;23.334;2023-04-09T01:56:45;14.9;;;11.1;;
69917;SDS011;57203;42.672;23.334;2023-04-09T01:57:45;15.4;;;12.2;;
69917;SDS011;57203;42.672;23.334;2023-04-09T01:58:45;15.4;;;12.3;;
69917;SDS011;57203;42.672;23.334;2023-04-09T01:59:45;15.4;;;11.2;;
69917;SDS011;57203;42.672;23.334;2023-04-09T02:00:46;15.5;;;11.7;;
69917;SDS011;57203;42.672;23.334;2023-04-09T02:01:46;15.4;;;11.4;;
69917;SDS011;57203;42.672;23.334;2023-04-09T02:04:46;16.3;;;12.1;;
69917;SDS011;57203;42.672;23.334;2023-04-09T02:05:48;16.2;;;12.4;;
69917;SDS011;57203;42.672;23.334;2023-04-09T02:06:52;16.8;;;11.1;;
69917;SDS011;57203;42.672;23.334;2023-04-09T02:07:48;14.3;;;11.5;;
69917;SDS011;57203;42.672;23.334;2023-04-09T02:08:47;14.8;;;11.7;;
69917;SDS011;57203;42.672;23.334;2023-04-09T02:09:47;15.4;;;11.9;;
69917;SDS011;57203;42.672;23.334;2023-04-09T02:10:48;16.6;;;11.4;;
69917;SDS011;57203;42.672;23.334;2023-04-09T02:11:47;16.9;;;11.9;;
69917;SDS011;57203;42.672;23.334;2023-04-09T02:12:48;14.8;;;11.1;;
69917;SDS011;57203;42.672;23.334;2023-04-09T02:13:48;16.2;;;11.4;;
69917;SDS011;57203;42.672;23.334;2023-04-09T02:14:49;16.2;;;11.0;;
69917;SDS011;57203;42.672;23.334;2023-04-09T02:15:48;14.2;;;11.3;;
69917;SDS011;57203;42.672;23.334;2023-04-09T02:16:48;15.3;;;12.1;;
69917;SDS011;57203;42.672;23.334;2023-04-09T02:17:48;16.3;;;11.5;;
69917;SDS011;57203;42.672;23.334;2023-04-09T02:18:52;15.2;;;12.2;;
69917;SDS011;57203;42.672;23.334;2023-04-09T02:19:49;18.1;;;12.1;;
69917;SDS011;57203;42.672;23.334;2023-04-09T02:20:49;18.1;;;11.3;;
69917;SDS011;57203;42.672;23.334;2023-04-09T02:21:49;15.4;;;12.0;;
69917;SDS011;57203;42.672;23.334;2023-04-09T02:22:49;16.1;;;11.7;;
69917;SDS011;57203;42.672;23.334;2023-04-09T02:23:49;14.8;;;11.3;;
69917;SDS011;57203;42.672;23.334;2023-04-09T02:24:49;15.2;;;12.0;;
69917;SDS011;57203;42.672;23.334;2023-04-09T02:25:50;15.2;;;11.1;;
69917;SDS011;57203;42.672;23.334;2023-04-09T02:26:50;15.7;;;11.0;;
69917;SDS011;57203;42.672;23.334;2023-04-09T02:27:50;14.6;;;11.4;;
69917;SDS011;57203;42.672;23.334;2023-04-09T02:28:50;15.1;;;12.0;;
69917;SDS011;57203;42.672;23.334;2023-04-09T02:29:50;15.4;;;11.9;;
69917;SDS011;57203;42.672;23.334;2023-04-09T02:30:50;15.4;;;12.1;;
69917;SDS011;57203;42.672;23.334;2023-04-09T02:31:50;17.3;;;11.9;;
69917;SDS011;57203;42.672;23.334;2023-04-09T02:33:51;16.4;;;12.2;;
69917;SDS011;57203;42.672;23.334;2023-04-09T02:34:51;16.7;;;12.6;;
69917;SDS011;57203;42.672;23.334;2023-04-09T02:35:51;16.7;;;12.2;;
69917;SDS011;57203;42.672;23.334;2023-04-09T02:37:51;14.9;;;11.7;;
69917;SDS011;57203;42.672;23.334;2023-04-09T02:38:51;16.6;;;12.3;;
69917;SDS011;57203;42.672;23.334;2023-04-09T02:39:52;16.6;;;13.2;;
69917;SDS011;57203;42.672;23.334;2023-04-09T02:40:52;17.0;;;11.7;;
69917;SDS011;57203;42.672;23.334;2023-04-09T02:41:52;15.5;;;12.7;;
69917;SDS011;57203;42.672;23.334;2023-04-09T02:42:52;18.2;;;12.5;;
69917;SDS011;57203;42.672;23.334;2023-04-09T02:43:52;16.3;;;13.6;;
69917;SDS011;57203;42.672;23.334;2023-04-09T02:44:53;18.7;;;13.5;;
69917;SDS011;57203;42.672;23.334;2023-04-09T02:45:53;17.9;;;13.7;;
69917;SDS011;57203;42.672;23.334;2023-04-09T02:46:53;20.0;;;13.2;;
69917;SDS011;57203;42.672;23.334;2023-04-09T02:47:53;19.1;;;13.9;;
69917;SDS011;57203;42.672;23.334;2023-04-09T02:48:53;19.6;;;13.6;;
69917;SDS011;57203;42.672;23.334;2023-04-09T02:49:53;19.6;;;13.5;;
69917;SDS011;57203;42.672;23.334;2023-04-09T02:50:54;18.6;;;14.0;;
69917;SDS011;57203;42.672;23.334;2023-04-09T02:51:54;19.6;;;14.1;;
69917;SDS011;57203;42.672;23.334;2023-04-09T02:52:54;19.4;;;13.7;;
69917;SDS011;57203;42.672;23.334;2023-04-09T02:53:54;19.6;;;13.5;;
69917;SDS011;57203;42.672;23.334;2023-04-09T02:55:54;17.8;;;13.2;;
69917;SDS011;57203;42.672;23.334;2023-04-09T02:56:54;17.8;;;13.6;;
69917;SDS011;57203;42.672;23.334;2023-04-09T02:57:55;18.3;;;13.8;;
69917;SDS011;57203;42.672;23.334;2023-04-09T02:59:55;18.0;;;13.0;;
69917;SDS011;57203;42.672;23.334;2023-04-09T03:00:55;18.0;;;13.3;;
69917;SDS011;57203;42.672;23.334;2023-04-09T03:01:55;18.0;;;13.7;;
69917;SDS011;57203;42.672;23.334;2023-04-09T03:02:55;20.6;;;14.3;;
69917;SDS011;57203;42.672;23.334;2023-04-09T03:03:56;19.9;;;13.9;;
69917;SDS011;57203;42.672;23.334;2023-04-09T03:04:56;19.8;;;14.0;;
69917;SDS011;57203;42.672;23.334;2023-04-09T03:05:56;19.0;;;13.8;;
69917;SDS011;57203;42.672;23.334;2023-04-09T03:06:56;19.0;;;13.3;;
69917;SDS011;57203;42.672;23.334;2023-04-09T03:07:56;18.2;;;13.8;;
69917;SDS011;57203;42.672;23.334;2023-04-09T03:08:56;18.2;;;14.3;;
69917;SDS011;57203;42.672;23.334;2023-04-09T03:09:57;19.3;;;13.9;;
69917;SDS011;57203;42.672;23.334;2023-04-09T03:10:57;20.6;;;14.1;;
69917;SDS011;57203;42.672;23.334;2023-04-09T03:11:57;20.6;;;14.0;;
69917;SDS011;57203;42.672;23.334;2023-04-09T03:12:57;20.0;;;13.6;;
69917;SDS011;57203;42.672;23.334;2023-04-09T03:13:57;18.6;;;13.9;;
69917;SDS011;57203;42.672;23.334;2023-04-09T03:14:57;19.1;;;14.3;;
69917;SDS011;57203;42.672;23.334;2023-04-09T03:16:58;20.2;;;13.3;;
69917;SDS011;57203;42.672;23.334;2023-04-09T03:17:58;18.0;;;13.6;;
69917;SDS011;57203;42.672;23.334;2023-04-09T03:18:58;17.9;;;13.3;;
69917;SDS011;57203;42.672;23.334;2023-04-09T03:19:58;19.4;;;13.5;;
69917;SDS011;57203;42.672;23.334;2023-04-09T03:20:58;19.4;;;13.7;;
69917;SDS011;57203;42.672;23.334;2023-04-09T03:21:58;20.2;;;12.8;;
69917;SDS011;57203;42.672;23.334;2023-04-09T03:22:59;19.1;;;13.9;;
69917;SDS011;57203;42.672;23.334;2023-04-09T03:23:59;19.1;;;14.6;;
69917;SDS011;57203;42.672;23.334;2023-04-09T03:24:59;20.0;;;14.0;;
69917;SDS011;57203;42.672;23.334;2023-04-09T03:26:59;19.1;;;14.3;;
69917;SDS011;57203;42.672;23.334;2023-04-09T03:27:59;20.5;;;14.9;;
69917;SDS011;57203;42.672;23.334;2023-04-09T03:29:00;22.8;;;14.8;;
69917;SDS011;57203;42.672;23.334;2023-04-09T03:30:00;20.3;;;13.9;;
69917;SDS011;57203;42.672;23.334;2023-04-09T03:31:00;18.1;;;13.8;;
69917;SDS011;57203;42.672;23.334;2023-04-09T03:32:00;18.1;;;14.1;;
69917;SDS011;57203;42.672;23.334;2023-04-09T03:34:00;20.4;;;15.0;;
69917;SDS011;57203;42.672;23.334;2023-04-09T03:35:01;20.8;;;15.1;;
69917;SDS011;57203;42.672;23.334;2023-04-09T03:36:01;20.8;;;14.6;;
69917;SDS011;57203;42.672;23.334;2023-04-09T03:38:01;20.2;;;14.5;;
69917;SDS011;57203;42.672;23.334;2023-04-09T03:39:01;19.7;;;15.1;;
69917;SDS011;57203;42.672;23.334;2023-04-09T03:40:02;22.7;;;14.9;;
69917;SDS011;57203;42.672;23.334;2023-04-09T03:41:02;21.6;;;15.1;;
69917;SDS011;57203;42.672;23.334;2023-04-09T03:42:02;21.6;;;15.5;;
69917;SDS011;57203;42.672;23.334;2023-04-09T03:43:02;23.5;;;15.0;;
69917;SDS011;57203;42.672;23.334;2023-04-09T03:44:03;23.5;;;15.1;;
69917;SDS011;57203;42.672;23.334;2023-04-09T03:45:03;22.3;;;16.1;;
69917;SDS011;57203;42.672;23.334;2023-04-09T03:46:09;22.3;;;15.6;;
69917;SDS011;57203;42.672;23.334;2023-04-09T03:47:03;22.8;;;16.2;;
69917;SDS011;57203;42.672;23.334;2023-04-09T03:48:03;24.0;;;15.3;;
69917;SDS011;57203;42.672;23.334;2023-04-09T03:49:03;22.5;;;16.4;;
69917;SDS011;57203;42.672;23.334;2023-04-09T03:50:03;23.6;;;15.5;;
69917;SDS011;57203;42.672;23.334;2023-04-09T03:51:03;22.4;;;14.5;;
69917;SDS011;57203;42.672;23.334;2023-04-09T03:52:05;23.1;;;14.0;;
69917;SDS011;57203;42.672;23.334;2023-04-09T03:53:04;21.3;;;14.9;;
69917;SDS011;57203;42.672;23.334;2023-04-09T03:54:04;23.3;;;16.4;;
69917;SDS011;57203;42.672;23.334;2023-04-09T03:55:04;24.5;;;16.7;;
69917;SDS011;57203;42.672;23.334;2023-04-09T03:57:04;24.8;;;16.9;;
69917;SDS011;57203;42.672;23.334;2023-04-09T03:58:04;24.4;;;16.7;;
69917;SDS011;57203;42.672;23.334;2023-04-09T03:59:05;22.3;;;16.1;;
69917;SDS011;57203;42.672;23.334;2023-04-09T04:00:05;24.1;;;16.6;;
69917;SDS011;57203;42.672;23.334;2023-04-09T04:01:05;23.3;;;17.3;;
69917;SDS011;57203;42.672;23.334;2023-04-09T04:02:05;24.6;;;16.9;;
69917;SDS011;57203;42.672;23.334;2023-04-09T04:03:05;23.9;;;16.4;;
69917;SDS011;57203;42.672;23.334;2023-04-09T04:04:05;24.1;;;17.6;;
69917;SDS011;57203;42.672;23.334;2023-04-09T04:05:06;24.6;;;17.1;;
69917;SDS011;57203;42.672;23.334;2023-04-09T04:06:06;24.6;;;16.9;;
69917;SDS011;57203;42.672;23.334;2023-04-09T04:08:06;25.5;;;17.8;;
69917;SDS011;57203;42.672;23.334;2023-04-09T04:09:06;25.5;;;17.7;;
69917;SDS011;57203;42.672;23.334;2023-04-09T04:10:07;26.2;;;17.2;;
69917;SDS011;57203;42.672;23.334;2023-04-09T04:11:06;23.7;;;16.7;;
69917;SDS011;57203;42.672;23.334;2023-04-09T04:12:07;23.7;;;17.0;;
69917;SDS011;57203;42.672;23.334;2023-04-09T04:13:07;25.7;;;17.3;;
69917;SDS011;57203;42.672;23.334;2023-04-09T04:14:07;25.6;;;16.7;;
69917;SDS011;57203;42.672;23.334;2023-04-09T04:15:07;25.8;;;17.6;;
69917;SDS011;57203;42.672;23.334;2023-04-09T04:16:08;25.8;;;17.8;;
69917;SDS011;57203;42.672;23.334;2023-04-09T04:17:07;25.0;;;18.0;;
69917;SDS011;57203;42.672;23.334;2023-04-09T04:18:08;26.0;;;16.8;;
69917;SDS011;57203;42.672;23.334;2023-04-09T04:19:08;26.8;;;16.5;;
69917;SDS011;57203;42.672;23.334;2023-04-09T04:20:08;26.3;;;16.7;;
69917;SDS011;57203;42.672;23.334;2023-04-09T04:21:11;27.6;;;17.6;;
69917;SDS011;57203;42.672;23.334;2023-04-09T04:22:08;25.1;;;18.3;;
69917;SDS011;57203;42.672;23.334;2023-04-09T04:23:08;26.3;;;19.4;;
69917;SDS011;57203;42.672;23.334;2023-04-09T04:24:08;26.6;;;18.8;;
69917;SDS011;57203;42.672;23.334;2023-04-09T04:25:09;26.7;;;18.3;;
69917;SDS011;57203;42.672;23.334;2023-04-09T04:26:09;27.1;;;17.0;;
69917;SDS011;57203;42.672;23.334;2023-04-09T04:27:09;25.1;;;18.5;;
69917;SDS011;57203;42.672;23.334;2023-04-09T04:28:09;28.8;;;16.9;;
69917;SDS011;57203;42.672;23.334;2023-04-09T04:29:09;28.7;;;17.7;;
69917;SDS011;57203;42.672;23.334;2023-04-09T04:30:10;27.1;;;18.6;;
69917;SDS011;57203;42.672;23.334;2023-04-09T04:31:10;25.7;;;17.6;;
69917;SDS011;57203;42.672;23.334;2023-04-09T04:32:10;26.6;;;17.9;;
69917;SDS011;57203;42.672;23.334;2023-04-09T04:33:10;26.6;;;18.0;;
69917;SDS011;57203;42.672;23.334;2023-04-09T04:34:10;26.4;;;18.6;;
69917;SDS011;57203;42.672;23.334;2023-04-09T04:35:10;26.4;;;17.8;;
69917;SDS011;57203;42.672;23.334;2023-04-09T04:36:11;27.0;;;16.0;;
69917;SDS011;57203;42.672;23.334;2023-04-09T04:37:12;24.9;;;18.7;;
69917;SDS011;57203;42.672;23.334;2023-04-09T04:38:11;27.8;;;18.4;;
69917;SDS011;57203;42.672;23.334;2023-04-09T04:39:11;27.5;;;18.3;;
69917;SDS011;57203;42.672;23.334;2023-04-09T04:41:11;28.7;;;18.7;;
69917;SDS011;57203;42.672;23.334;2023-04-09T04:42:11;26.7;;;18.3;;
69917;SDS011;57203;42.672;23.334;2023-04-09T04:43:11;26.3;;;19.1;;
69917;SDS011;57203;42.672;23.334;2023-04-09T04:44:12;27.7;;;18.7;;
69917;SDS011;57203;42.672;23.334;2023-04-09T04:45:12;27.7;;;18.3;;
69917;SDS011;57203;42.672;23.334;2023-04-09T04:46:12;27.7;;;18.9;;
69917;SDS011;57203;42.672;23.334;2023-04-09T04:47:12;26.1;;;18.8;;
69917;SDS011;57203;42.672;23.334;2023-04-09T04:48:12;29.2;;;18.5;;
69917;SDS011;57203;42.672;23.334;2023-04-09T04:49:12;28.0;;;17.8;;
69917;SDS011;57203;42.672;23.334;2023-04-09T04:50:13;25.9;;;18.4;;
69917;SDS011;57203;42.672;23.334;2023-04-09T04:51:13;26.1;;;18.3;;
69917;SDS011;57203;42.672;23.334;2023-04-09T04:52:13;26.9;;;17.1;;
69917;SDS011;57203;42.672;23.334;2023-04-09T04:53:13;24.3;;;17.6;;
69917;SDS011;57203;42.672;23.334;2023-04-09T04:54:13;24.9;;;17.2;;
69917;SDS011;57203;42.672;23.334;2023-04-09T04:55:13;25.2;;;17.7;;
69917;SDS011;57203;42.672;23.334;2023-04-09T04:57:14;28.3;;;16.4;;
69917;SDS011;57203;42.672;23.334;2023-04-09T04:58:14;24.3;;;17.8;;
69917;SDS011;57203;42.672;23.334;2023-04-09T04:59:14;23.8;;;17.1;;
69917;SDS011;57203;42.672;23.334;2023-04-09T05:00:14;23.8;;;17.9;;
69917;SDS011;57203;42.672;23.334;2023-04-09T05:01:14;23.7;;;17.1;;
69917;SDS011;57203;42.672;23.334;2023-04-09T05:02:14;23.7;;;17.0;;
69917;SDS011;57203;42.672;23.334;2023-04-09T05:04:15;23.6;;;16.6;;
69917;SDS011;57203;42.672;23.334;2023-04-09T05:05:15;23.6;;;16.8;;
69917;SDS011;57203;42.672;23.334;2023-04-09T05:06:15;24.4;;;17.2;;
69917;SDS011;57203;42.672;23.334;2023-04-09T05:07:15;24.4;;;17.0;;
69917;SDS011;57203;42.672;23.334;2023-04-09T05:08:15;23.4;;;16.5;;
69917;SDS011;57203;42.672;23.334;2023-04-09T05:09:16;24.0;;;16.7;;
69917;SDS011;57203;42.672;23.334;2023-04-09T05:10:16;21.9;;;16.0;;
69917;SDS011;57203;42.672;23.334;2023-04-09T05:11:16;21.9;;;16.7;;
69917;SDS011;57203;42.672;23.334;2023-04-09T05:12:16;24.4;;;16.4;;
69917;SDS011;57203;42.672;23.334;2023-04-09T05:13:16;24.6;;;16.1;;
69917;SDS011;57203;42.672;23.334;2023-04-09T05:14:17;22.5;;;17.4;;
69917;SDS011;57203;42.672;23.334;2023-04-09T05:15:17;23.6;;;16.4;;
69917;SDS011;57203;42.672;23.334;2023-04-09T05:16:17;24.5;;;16.6;;
69917;SDS011;57203;42.672;23.334;2023-04-09T05:17:17;23.1;;;16.5;;
69917;SDS011;57203;42.672;23.334;2023-04-09T05:18:17;24.2;;;15.0;;
69917;SDS011;57203;42.672;23.334;2023-04-09T05:19:17;23.6;;;16.3;;
69917;SDS011;57203;42.672;23.334;2023-04-09T05:20:18;23.6;;;16.0;;
69917;SDS011;57203;42.672;23.334;2023-04-09T05:21:18;21.8;;;16.7;;
69917;SDS011;57203;42.672;23.334;2023-04-09T05:22:18;26.4;;;16.4;;
69917;SDS011;57203;42.672;23.334;2023-04-09T05:23:18;25.3;;;16.8;;
69917;SDS011;57203;42.672;23.334;2023-04-09T05:24:18;25.3;;;17.0;;
69917;SDS011;57203;42.672;23.334;2023-04-09T05:25:18;25.9;;;16.5;;
69917;SDS011;57203;42.672;23.334;2023-04-09T05:26:19;25.9;;;16.2;;
69917;SDS011;57203;42.672;23.334;2023-04-09T05:28:19;22.9;;;16.3;;
69917;SDS011;57203;42.672;23.334;2023-04-09T05:32:20;24.7;;;16.9;;
69917;SDS011;57203;42.672;23.334;2023-04-09T05:33:20;25.1;;;15.7;;
69917;SDS011;57203;42.672;23.334;2023-04-09T05:36:20;24.0;;;14.8;;
69917;SDS011;57203;42.672;23.334;2023-04-09T05:37:21;21.9;;;15.1;;
69917;SDS011;57203;42.672;23.334;2023-04-09T05:38:21;21.5;;;16.1;;
69917;SDS011;57203;42.672;23.334;2023-04-09T05:39:21;24.3;;;15.3;;
69917;SDS011;57203;42.672;23.334;2023-04-09T05:40:21;23.9;;;15.6;;
69917;SDS011;57203;42.672;23.334;2023-04-09T05:41:21;24.0;;;15.3;;
69917;SDS011;57203;42.672;23.334;2023-04-09T05:42:21;24.0;;;14.4;;
69917;SDS011;57203;42.672;23.334;2023-04-09T05:43:22;22.2;;;14.9;;
69917;SDS011;57203;42.672;23.334;2023-04-09T05:44:22;22.5;;;14.6;;
69917;SDS011;57203;42.672;23.334;2023-04-09T05:45:22;24.2;;;15.4;;
69917;SDS011;57203;42.672;23.334;2023-04-09T05:46:22;23.1;;;15.1;;
69917;SDS011;57203;42.672;23.334;2023-04-09T05:47:22;23.1;;;15.2;;
69917;SDS011;57203;42.672;23.334;2023-04-09T05:48:22;23.1;;;14.7;;
69917;SDS011;57203;42.672;23.334;2023-04-09T05:49:23;22.4;;;15.9;;
69917;SDS011;57203;42.672;23.334;2023-04-09T05:50:23;25.4;;;14.4;;
69917;SDS011;57203;42.672;23.334;2023-04-09T05:51:23;21.1;;;13.4;;
69917;SDS011;57203;42.672;23.334;2023-04-09T05:52:23;19.9;;;14.3;;
69917;SDS011;57203;42.672;23.334;2023-04-09T05:53:23;20.9;;;13.1;;
69917;SDS011;57203;42.672;23.334;2023-04-09T05:54:23;19.9;;;13.6;;
69917;SDS011;57203;42.672;23.334;2023-04-09T05:55:24;20.4;;;13.5;;
69917;SDS011;57203;42.672;23.334;2023-04-09T05:56:24;20.0;;;13.9;;
69917;SDS011;57203;42.672;23.334;2023-04-09T05:57:24;24.4;;;13.0;;
69917;SDS011;57203;42.672;23.334;2023-04-09T05:58:24;20.0;;;13.2;;
69917;SDS011;57203;42.672;23.334;2023-04-09T05:59:24;20.1;;;13.5;;
69917;SDS011;57203;42.672;23.334;2023-04-09T06:00:24;22.2;;;14.3;;
69917;SDS011;57203;42.672;23.334;2023-04-09T06:01:25;22.2;;;13.0;;
69917;SDS011;57203;42.672;23.334;2023-04-09T06:03:25;19.1;;;13.6;;
69917;SDS011;57203;42.672;23.334;2023-04-09T06:04:25;20.4;;;13.5;;
69917;SDS011;57203;42.672;23.334;2023-04-09T06:05:25;20.2;;;13.9;;
69917;SDS011;57203;42.672;23.334;2023-04-09T06:06:25;20.2;;;13.6;;
69917;SDS011;57203;42.672;23.334;2023-04-09T06:07:26;21.7;;;13.5;;
69917;SDS011;57203;42.672;23.334;2023-04-09T06:08:26;22.2;;;13.4;;
69917;SDS011;57203;42.672;23.334;2023-04-09T06:09:26;21.3;;;13.3;;
69917;SDS011;57203;42.672;23.334;2023-04-09T06:10:26;20.1;;;12.4;;
69917;SDS011;57203;42.672;23.334;2023-04-09T06:11:27;20.1;;;13.3;;
69917;SDS011;57203;42.672;23.334;2023-04-09T06:12:27;20.4;;;13.8;;
69917;SDS011;57203;42.672;23.334;2023-04-09T06:13:27;20.7;;;12.9;;
69917;SDS011;57203;42.672;23.334;2023-04-09T06:14:27;18.4;;;12.5;;
69917;SDS011;57203;42.672;23.334;2023-04-09T06:15:27;19.8;;;12.4;;
69917;SDS011;57203;42.672;23.334;2023-04-09T06:16:27;18.5;;;12.6;;
69917;SDS011;57203;42.672;23.334;2023-04-09T06:17:27;19.9;;;13.1;;
69917;SDS011;57203;42.672;23.334;2023-04-09T06:18:27;19.9;;;13.9;;
69917;SDS011;57203;42.672;23.334;2023-04-09T06:19:28;20.9;;;13.0;;
69917;SDS011;57203;42.672;23.334;2023-04-09T06:20:28;20.8;;;13.4;;
69917;SDS011;57203;42.672;23.334;2023-04-09T06:22:29;20.8;;;12.8;;
69917;SDS011;57203;42.672;23.334;2023-04-09T06:23:28;20.2;;;13.5;;
69917;SDS011;57203;42.672;23.334;2023-04-09T06:25:29;19.9;;;13.2;;
69917;SDS011;57203;42.672;23.334;2023-04-09T06:26:29;19.6;;;13.0;;
69917;SDS011;57203;42.672;23.334;2023-04-09T06:28:30;19.9;;;12.8;;
69917;SDS011;57203;42.672;23.334;2023-04-09T06:29:29;19.9;;;12.0;;
69917;SDS011;57203;42.672;23.334;2023-04-09T06:30:30;18.3;;;11.7;;
69917;SDS011;57203;42.672;23.334;2023-04-09T06:32:30;19.8;;;12.5;;